createdAt,value
2018-02-11T00:00:26.953Z,2.87
2018-02-11T00:01:27.638Z,2.87
2018-02-11T00:02:27.397Z,2.87
2018-02-11T00:03:27.814Z,2.94
2018-02-11T00:04:27.425Z,2.87
2018-02-11T00:05:27.523Z,2.94
2018-02-11T00:06:27.561Z,2.87
2018-02-11T00:07:27.622Z,2.94
2018-02-11T00:08:26.998Z,2.87
2018-02-11T00:09:27.447Z,2.87
2018-02-11T00:10:27.022Z,2.87
2018-02-11T00:11:27.562Z,2.87
2018-02-11T00:12:27.344Z,2.81
2018-02-11T00:13:27.257Z,2.81
2018-02-11T00:14:27.480Z,2.81
2018-02-11T00:15:27.485Z,2.75
2018-02-11T00:16:27.413Z,2.75
2018-02-11T00:17:27.411Z,2.75
2018-02-11T00:18:26.963Z,2.75
2018-02-11T00:19:27.583Z,2.69
2018-02-11T00:20:27.562Z,2.75
2018-02-11T00:21:27.592Z,2.69
2018-02-11T00:22:27.553Z,2.69
2018-02-11T00:23:27.121Z,2.69
2018-02-11T00:24:27.611Z,2.69
2018-02-11T00:25:27.700Z,2.69
2018-02-11T00:26:26.989Z,2.69
2018-02-11T00:27:28.012Z,2.62
2018-02-11T00:28:27.838Z,2.69
2018-02-11T00:29:27.674Z,2.69
2018-02-11T00:30:27.542Z,2.62
2018-02-11T00:31:27.699Z,2.62
2018-02-11T00:32:27.514Z,2.62
2018-02-11T00:33:27.723Z,2.62
2018-02-11T00:34:27.542Z,2.62
2018-02-11T00:35:27.658Z,2.62
2018-02-11T00:36:27.569Z,2.56
2018-02-11T00:37:27.427Z,2.56
2018-02-11T00:38:27.767Z,2.5
2018-02-11T00:39:25.776Z,2.56
2018-02-11T00:40:25.595Z,2.5
2018-02-11T00:41:25.637Z,2.5
2018-02-11T00:42:25.584Z,2.5
2018-02-11T00:43:25.744Z,2.44
2018-02-11T00:44:25.647Z,2.5
2018-02-11T00:45:25.545Z,2.44
2018-02-11T00:46:25.619Z,2.44
2018-02-11T00:47:25.794Z,2.44
2018-02-11T00:48:25.726Z,2.44
2018-02-11T00:49:25.696Z,2.44
2018-02-11T00:50:25.505Z,2.44
2018-02-11T00:51:25.594Z,2.44
2018-02-11T00:52:25.662Z,2.44
2018-02-11T00:53:25.528Z,2.44
2018-02-11T00:54:25.545Z,2.44
2018-02-11T00:55:25.598Z,2.44
2018-02-11T00:56:25.588Z,2.44
2018-02-11T00:57:25.661Z,2.44
2018-02-11T00:58:25.573Z,2.44
2018-02-11T00:59:25.747Z,2.44
2018-02-11T01:00:25.609Z,2.44
2018-02-11T01:01:26.880Z,2.44
2018-02-11T01:02:25.694Z,2.44
2018-02-11T01:03:25.504Z,2.44
2018-02-11T01:04:25.636Z,2.44
2018-02-11T01:05:25.689Z,2.44
2018-02-11T01:06:25.537Z,2.44
2018-02-11T01:07:25.711Z,2.44
2018-02-11T01:08:25.709Z,2.44
2018-02-11T01:09:25.726Z,2.44
2018-02-11T01:10:27.036Z,2.44
2018-02-11T01:11:26.932Z,2.44
2018-02-11T01:12:25.814Z,2.44
2018-02-11T01:13:25.789Z,2.44
2018-02-11T01:14:27.163Z,2.44
2018-02-11T01:15:25.798Z,2.37
2018-02-11T01:16:25.894Z,2.44
2018-02-11T01:17:25.859Z,2.37
2018-02-11T01:18:27.108Z,2.37
2018-02-11T01:19:25.678Z,2.37
2018-02-11T01:20:26.995Z,2.37
2018-02-11T01:21:25.860Z,2.31
2018-02-11T01:22:25.689Z,2.31
2018-02-11T01:23:27.071Z,2.31
2018-02-11T01:24:25.753Z,2.31
2018-02-11T01:25:25.791Z,2.31
2018-02-11T01:26:25.849Z,2.31
2018-02-11T01:27:25.875Z,2.25
2018-02-11T01:28:25.874Z,2.31
2018-02-11T01:29:25.788Z,2.31
2018-02-11T01:31:39.878Z,2.25
2018-02-11T01:32:27.040Z,2.25
2018-02-11T01:33:27.094Z,2.25
2018-02-11T01:34:25.833Z,2.19
2018-02-11T01:35:25.889Z,2.25
2018-02-11T01:36:25.828Z,2.19
2018-02-11T01:37:25.808Z,2.19
2018-02-11T01:38:25.867Z,2.19
2018-02-11T01:39:25.811Z,2.25
2018-02-11T01:40:25.824Z,2.25
2018-02-11T01:41:25.779Z,2.19
2018-02-11T01:42:25.742Z,2.19
2018-02-11T01:43:25.681Z,2.19
2018-02-11T01:44:25.608Z,2.19
2018-02-11T01:45:25.640Z,2.19
2018-02-11T01:46:25.630Z,2.19
2018-02-11T01:47:25.607Z,2.12
2018-02-11T01:48:25.693Z,2.12
2018-02-11T01:49:25.698Z,2.12
2018-02-11T01:50:25.814Z,2.12
2018-02-11T01:51:25.624Z,2.12
2018-02-11T01:52:25.737Z,2.12
2018-02-11T01:53:25.522Z,2.06
2018-02-11T01:54:25.655Z,2.06
2018-02-11T01:55:25.672Z,2.12
2018-02-11T01:56:25.645Z,2.12
2018-02-11T01:57:25.707Z,2.12
2018-02-11T01:58:27.313Z,2.12
2018-02-11T01:59:25.853Z,2.12
2018-02-11T02:00:25.652Z,2.06
2018-02-11T02:01:25.600Z,2.12
2018-02-11T02:02:25.585Z,2.06
2018-02-11T02:03:25.628Z,2.06
2018-02-11T02:04:25.798Z,2.06
2018-02-11T02:05:25.838Z,2.06
2018-02-11T02:06:25.586Z,2.06
2018-02-11T02:07:25.796Z,2.06
2018-02-11T02:08:25.804Z,2.06
2018-02-11T02:09:25.836Z,2.06
2018-02-11T02:10:25.613Z,2.06
2018-02-11T02:11:25.781Z,2
2018-02-11T02:12:25.665Z,2.06
2018-02-11T02:13:25.746Z,2
2018-02-11T02:14:25.830Z,2.06
2018-02-11T02:15:25.716Z,2
2018-02-11T02:16:25.780Z,2.06
2018-02-11T02:17:25.684Z,2.06
2018-02-11T02:18:25.856Z,2
2018-02-11T02:19:25.818Z,2
2018-02-11T02:20:25.807Z,2
2018-02-11T02:21:25.644Z,2
2018-02-11T02:22:25.722Z,2.06
2018-02-11T02:23:25.752Z,2.06
2018-02-11T02:24:25.689Z,2
2018-02-11T02:25:25.664Z,2
2018-02-11T02:26:25.765Z,2
2018-02-11T02:27:25.698Z,2.06
2018-02-11T02:28:25.890Z,2
2018-02-11T02:29:25.847Z,2
2018-02-11T02:30:25.854Z,2
2018-02-11T02:31:25.725Z,2.06
2018-02-11T02:32:25.649Z,2
2018-02-11T02:33:25.884Z,2.06
2018-02-11T02:34:25.699Z,2
2018-02-11T02:35:25.825Z,2.06
2018-02-11T02:36:27.256Z,2
2018-02-11T02:37:25.912Z,2.06
2018-02-11T02:38:25.846Z,2.06
2018-02-11T02:41:44.637Z,2.06
2018-02-11T02:42:25.411Z,2
2018-02-11T02:43:25.603Z,2
2018-02-11T02:44:25.560Z,2.06
2018-02-11T02:45:25.575Z,2.06
2018-02-11T02:46:25.398Z,2.06
2018-02-11T02:47:25.384Z,2
2018-02-11T02:48:25.406Z,2.06
2018-02-11T02:49:25.553Z,2.06
2018-02-11T02:50:25.513Z,2.06
2018-02-11T02:51:25.631Z,2.06
2018-02-11T02:52:25.516Z,2.12
2018-02-11T02:53:25.553Z,2.06
2018-02-11T02:54:25.639Z,2.06
2018-02-11T02:55:25.486Z,2.12
2018-02-11T02:56:25.461Z,2.12
2018-02-11T02:57:25.532Z,2.12
2018-02-11T02:58:25.656Z,2.12
2018-02-11T02:59:25.444Z,2.12
2018-02-11T03:00:25.466Z,2.12
2018-02-11T03:01:25.585Z,2.12
2018-02-11T03:02:25.571Z,2.12
2018-02-11T03:03:25.581Z,2.12
2018-02-11T03:04:25.602Z,2.12
2018-02-11T03:05:25.421Z,2.12
2018-02-11T03:06:25.448Z,2.12
2018-02-11T03:07:25.336Z,2.12
2018-02-11T03:08:25.489Z,2.12
2018-02-11T03:09:25.532Z,2.12
2018-02-11T03:10:25.352Z,2.12
2018-02-11T03:11:25.679Z,2.12
2018-02-11T03:12:25.619Z,2.12
2018-02-11T03:13:25.428Z,2.12
2018-02-11T03:14:25.565Z,2.12
2018-02-11T03:15:25.606Z,2.12
2018-02-11T03:16:25.423Z,2.12
2018-02-11T03:17:25.692Z,2.12
2018-02-11T03:18:25.543Z,2.12
2018-02-11T03:19:25.673Z,2.12
2018-02-11T03:20:25.654Z,2.12
2018-02-11T03:21:25.635Z,2.12
2018-02-11T03:22:25.563Z,2.12
2018-02-11T03:23:25.702Z,2.12
2018-02-11T03:24:25.522Z,2.12
2018-02-11T03:25:25.764Z,2.12
2018-02-11T03:26:25.675Z,2.06
2018-02-11T03:27:25.606Z,2.12
2018-02-11T03:28:25.590Z,2.12
2018-02-11T03:29:25.640Z,2.12
2018-02-11T03:30:25.684Z,2.06
2018-02-11T03:31:25.521Z,2.12
2018-02-11T03:32:25.503Z,2.06
2018-02-11T03:33:25.638Z,2.12
2018-02-11T03:34:25.708Z,2.06
2018-02-11T03:35:25.536Z,2.06
2018-02-11T03:36:25.608Z,2.06
2018-02-11T03:37:25.674Z,2.12
2018-02-11T03:38:25.633Z,2.06
2018-02-11T03:39:25.698Z,2.06
2018-02-11T03:40:25.638Z,2.06
2018-02-11T03:41:25.549Z,2.06
2018-02-11T03:42:25.659Z,2.06
2018-02-11T03:43:25.655Z,2.12
2018-02-11T03:44:25.572Z,2.06
2018-02-11T03:45:25.568Z,2.06
2018-02-11T03:46:25.514Z,2.06
2018-02-11T03:47:25.580Z,2.06
2018-02-11T03:48:25.521Z,2.06
2018-02-11T03:49:25.671Z,2.06
2018-02-11T03:50:25.467Z,2.06
2018-02-11T03:51:25.545Z,2.06
2018-02-11T03:52:25.703Z,2.06
2018-02-11T03:53:25.708Z,2.06
2018-02-11T03:54:25.809Z,2.06
2018-02-11T03:55:25.613Z,2.06
2018-02-11T03:56:25.671Z,2.06
2018-02-11T03:57:25.505Z,2.06
2018-02-11T03:58:25.642Z,2.06
2018-02-11T03:59:25.748Z,2.06
2018-02-11T04:00:25.762Z,2.06
2018-02-11T04:01:25.663Z,2.06
2018-02-11T04:02:25.611Z,2
2018-02-11T04:03:25.560Z,2.06
2018-02-11T04:04:25.647Z,2.06
2018-02-11T04:05:25.606Z,2.06
2018-02-11T04:06:25.621Z,2.06
2018-02-11T04:07:25.690Z,2.06
2018-02-11T04:08:25.501Z,2
2018-02-11T04:09:25.612Z,2.06
2018-02-11T04:10:25.610Z,2.06
2018-02-11T04:11:25.608Z,2.06
2018-02-11T04:12:25.782Z,2.06
2018-02-11T04:13:25.631Z,2.06
2018-02-11T04:14:25.489Z,2.12
2018-02-11T04:15:27.599Z,2.06
2018-02-11T04:16:27.216Z,2.12
2018-02-11T04:17:27.504Z,2.12
2018-02-11T04:20:27.650Z,2.12
2018-02-11T04:21:27.484Z,2.06
2018-02-11T04:22:27.428Z,2.06
2018-02-11T04:23:27.554Z,2.06
2018-02-11T04:24:27.538Z,2.12
2018-02-11T04:25:27.657Z,2.06
2018-02-11T04:26:27.425Z,2.12
2018-02-11T04:27:27.527Z,2.12
2018-02-11T04:28:27.429Z,2.12
2018-02-11T04:29:27.457Z,2.12
2018-02-11T04:30:27.533Z,2.12
2018-02-11T04:31:27.534Z,2.12
2018-02-11T04:32:27.467Z,2.12
2018-02-11T04:33:27.388Z,2.12
2018-02-11T04:34:27.630Z,2.12
2018-02-11T04:35:27.461Z,2.19
2018-02-11T04:36:27.551Z,2.12
2018-02-11T04:37:27.526Z,2.12
2018-02-11T04:38:27.382Z,2.12
2018-02-11T04:39:27.505Z,2.19
2018-02-11T04:40:27.421Z,2.12
2018-02-11T04:41:27.377Z,2.19
2018-02-11T04:42:27.409Z,2.12
2018-02-11T04:43:27.250Z,2.12
2018-02-11T04:44:27.486Z,2.19
2018-02-11T04:45:26.943Z,2.12
2018-02-11T04:46:27.497Z,2.19
2018-02-11T04:47:27.483Z,2.19
2018-02-11T04:48:27.445Z,2.19
2018-02-11T04:49:27.340Z,2.25
2018-02-11T04:50:26.902Z,2.25
2018-02-11T04:51:27.590Z,2.19
2018-02-11T04:52:27.546Z,2.19
2018-02-11T04:53:27.427Z,2.25
2018-02-11T04:54:27.386Z,2.25
2018-02-11T04:55:27.343Z,2.19
2018-02-11T04:56:27.568Z,2.19
2018-02-11T04:57:27.556Z,2.25
2018-02-11T04:58:27.476Z,2.19
2018-02-11T04:59:27.338Z,2.19
2018-02-11T05:00:27.333Z,2.25
2018-02-11T05:01:27.453Z,2.19
2018-02-11T05:02:26.983Z,2.19
2018-02-11T05:03:27.602Z,2.19
2018-02-11T05:04:27.382Z,2.25
2018-02-11T05:05:27.368Z,2.25
2018-02-11T05:06:27.516Z,2.25
2018-02-11T05:07:27.470Z,2.25
2018-02-11T05:08:27.556Z,2.25
2018-02-11T05:09:27.191Z,2.19
2018-02-11T05:10:27.608Z,2.25
2018-02-11T05:11:27.587Z,2.25
2018-02-11T05:12:27.401Z,2.25
2018-02-11T05:13:27.524Z,2.19
2018-02-11T05:14:27.616Z,2.19
2018-02-11T05:15:25.419Z,2.25
2018-02-11T05:16:25.509Z,2.25
2018-02-11T05:17:25.413Z,2.25
2018-02-11T05:18:25.445Z,2.25
2018-02-11T05:19:25.514Z,2.25
2018-02-11T05:20:25.574Z,2.25
2018-02-11T05:21:25.499Z,2.19
2018-02-11T05:22:25.599Z,2.25
2018-02-11T05:23:25.502Z,2.25
2018-02-11T05:24:25.403Z,2.31
2018-02-11T05:25:25.675Z,2.25
2018-02-11T05:26:25.631Z,2.31
2018-02-11T05:27:25.617Z,2.31
2018-02-11T05:28:25.871Z,2.31
2018-02-11T05:29:25.633Z,2.31
2018-02-11T05:30:25.657Z,2.31
2018-02-11T05:31:25.557Z,2.37
2018-02-11T05:32:25.541Z,2.31
2018-02-11T05:33:25.435Z,2.31
2018-02-11T05:34:25.417Z,2.31
2018-02-11T05:35:25.458Z,2.37
2018-02-11T05:36:25.499Z,2.31
2018-02-11T05:39:37.173Z,2.31
2018-02-11T05:40:25.575Z,2.31
2018-02-11T05:41:25.626Z,2.31
2018-02-11T05:42:25.605Z,2.37
2018-02-11T05:43:25.494Z,2.31
2018-02-11T05:44:25.570Z,2.37
2018-02-11T05:45:25.442Z,2.37
2018-02-11T05:46:26.150Z,2.37
2018-02-11T05:47:26.281Z,2.37
2018-02-11T05:48:26.198Z,2.44
2018-02-11T05:49:26.286Z,2.37
2018-02-11T05:50:26.284Z,2.37
2018-02-11T05:51:26.219Z,2.37
2018-02-11T05:52:26.394Z,2.37
2018-02-11T05:53:26.335Z,2.37
2018-02-11T05:54:26.349Z,2.37
2018-02-11T05:55:26.320Z,2.37
2018-02-11T05:56:26.130Z,2.37
2018-02-11T05:57:26.260Z,2.37
2018-02-11T05:58:26.232Z,2.37
2018-02-11T05:59:26.277Z,2.37
2018-02-11T06:00:26.316Z,2.37
2018-02-11T06:01:26.209Z,2.37
2018-02-11T06:02:26.241Z,2.31
2018-02-11T06:03:26.439Z,2.37
2018-02-11T06:04:26.284Z,2.37
2018-02-11T06:05:26.430Z,2.44
2018-02-11T06:06:26.277Z,2.37
2018-02-11T06:07:26.336Z,2.37
2018-02-11T06:08:26.220Z,2.37
2018-02-11T06:09:26.370Z,2.37
2018-02-11T06:10:26.223Z,2.44
2018-02-11T06:11:26.185Z,2.37
2018-02-11T06:12:26.295Z,2.44
2018-02-11T06:13:26.279Z,2.37
2018-02-11T06:14:26.287Z,2.5
2018-02-11T06:15:26.262Z,2.37
2018-02-11T06:16:26.030Z,2.5
2018-02-11T06:17:26.163Z,2.5
2018-02-11T06:18:26.019Z,2.5
2018-02-11T06:19:26.225Z,2.44
2018-02-11T06:20:26.284Z,2.5
2018-02-11T06:21:26.091Z,2.5
2018-02-11T06:22:26.125Z,2.5
2018-02-11T06:23:26.136Z,2.5
2018-02-11T06:24:26.047Z,2.5
2018-02-11T06:25:26.166Z,2.5
2018-02-11T06:26:26.110Z,2.5
2018-02-11T06:27:26.056Z,2.5
2018-02-11T06:28:26.011Z,2.44
2018-02-11T06:29:26.168Z,2.5
2018-02-11T06:30:26.087Z,2.5
2018-02-11T06:31:26.240Z,2.5
2018-02-11T06:32:26.067Z,2.5
2018-02-11T06:33:26.198Z,2.5
2018-02-11T06:34:26.220Z,2.5
2018-02-11T06:35:26.110Z,2.5
2018-02-11T06:36:25.996Z,2.5
2018-02-11T06:37:26.001Z,2.5
2018-02-11T06:38:26.024Z,2.56
2018-02-11T06:39:26.056Z,2.5
2018-02-11T06:40:26.147Z,2.5
2018-02-11T06:41:26.091Z,2.56
2018-02-11T06:42:26.056Z,2.56
2018-02-11T06:43:26.190Z,2.56
2018-02-11T06:44:26.250Z,2.56
2018-02-11T06:45:26.406Z,2.5
2018-02-11T06:46:26.468Z,2.5
2018-02-11T06:47:26.418Z,2.56
2018-02-11T06:48:26.300Z,2.5
2018-02-11T06:49:26.384Z,2.5
2018-02-11T06:50:26.228Z,2.56
2018-02-11T06:51:26.273Z,2.5
2018-02-11T06:52:26.365Z,2.5
2018-02-11T06:53:26.410Z,2.56
2018-02-11T06:54:26.420Z,2.5
2018-02-11T06:55:26.321Z,2.5
2018-02-11T06:56:26.935Z,2.5
2018-02-11T06:57:26.400Z,2.5
2018-02-11T06:58:26.286Z,2.5
2018-02-11T06:59:26.377Z,2.5
2018-02-11T07:00:26.198Z,2.5
2018-02-11T07:01:26.451Z,2.56
2018-02-11T07:02:26.361Z,2.5
2018-02-11T07:03:26.470Z,2.5
2018-02-11T07:04:26.350Z,2.56
2018-02-11T07:05:26.281Z,2.56
2018-02-11T07:06:26.532Z,2.56
2018-02-11T07:07:26.389Z,2.56
2018-02-11T07:08:26.285Z,2.56
2018-02-11T07:09:26.259Z,2.56
2018-02-11T07:10:26.234Z,2.62
2018-02-11T07:11:26.412Z,2.56
2018-02-11T07:12:26.363Z,2.56
2018-02-11T07:13:26.516Z,2.56
2018-02-11T07:14:26.262Z,2.62
2018-02-11T07:15:26.372Z,2.56
2018-02-11T07:16:26.307Z,2.62
2018-02-11T07:17:26.208Z,2.62
2018-02-11T07:18:26.332Z,2.69
2018-02-11T07:19:26.061Z,2.62
2018-02-11T07:20:26.148Z,2.69
2018-02-11T07:21:26.127Z,2.69
2018-02-11T07:22:26.183Z,2.62
2018-02-11T07:23:26.087Z,2.69
2018-02-11T07:24:26.150Z,2.62
2018-02-11T07:25:26.074Z,2.69
2018-02-11T07:26:26.344Z,2.62
2018-02-11T07:27:26.302Z,2.69
2018-02-11T07:28:26.243Z,2.69
2018-02-11T07:29:26.215Z,2.69
2018-02-11T07:30:26.410Z,2.69
2018-02-11T07:31:26.302Z,2.69
2018-02-11T07:32:26.283Z,2.69
2018-02-11T07:33:26.127Z,2.75
2018-02-11T07:34:26.368Z,2.75
2018-02-11T07:35:26.412Z,2.75
2018-02-11T07:36:26.099Z,2.75
2018-02-11T07:37:26.298Z,2.75
2018-02-11T07:38:26.158Z,2.75
2018-02-11T07:39:26.055Z,2.75
2018-02-11T07:40:26.103Z,2.75
2018-02-11T07:41:26.327Z,2.75
2018-02-11T07:42:26.463Z,2.75
2018-02-11T07:43:26.223Z,2.75
2018-02-11T07:44:26.067Z,2.81
2018-02-11T07:45:26.237Z,2.75
2018-02-11T07:46:26.351Z,2.75
2018-02-11T07:47:26.507Z,2.75
2018-02-11T07:48:26.433Z,2.81
2018-02-11T07:49:26.328Z,2.81
2018-02-11T07:50:26.150Z,2.75
2018-02-11T07:51:26.414Z,2.81
2018-02-11T07:52:26.306Z,2.81
2018-02-11T07:53:26.345Z,2.81
2018-02-11T07:54:26.341Z,2.81
2018-02-11T07:55:26.368Z,2.81
2018-02-11T07:56:26.651Z,2.81
2018-02-11T07:57:26.485Z,2.81
2018-02-11T07:58:26.377Z,2.81
2018-02-11T07:59:26.358Z,2.81
2018-02-11T08:00:26.524Z,2.81
2018-02-11T08:01:26.361Z,2.81
2018-02-11T08:02:26.345Z,2.81
2018-02-11T08:03:26.374Z,2.81
2018-02-11T08:04:26.432Z,2.81
2018-02-11T08:05:26.374Z,2.75
2018-02-11T08:06:26.587Z,2.81
2018-02-11T08:07:26.238Z,2.81
2018-02-11T08:08:26.135Z,2.81
2018-02-11T08:09:26.454Z,2.81
2018-02-11T08:10:26.396Z,2.81
2018-02-11T08:11:26.419Z,2.87
2018-02-11T08:12:26.240Z,2.87
2018-02-11T08:13:26.476Z,2.81
2018-02-11T08:14:26.371Z,2.87
2018-02-11T08:15:26.368Z,2.87
2018-02-11T08:16:26.293Z,2.87
2018-02-11T08:17:26.610Z,2.87
2018-02-11T08:18:26.649Z,2.87
2018-02-11T08:19:26.718Z,2.94
2018-02-11T08:20:26.441Z,2.87
2018-02-11T08:21:26.551Z,2.94
2018-02-11T08:22:26.718Z,2.94
2018-02-11T08:23:26.538Z,3
2018-02-11T08:24:26.611Z,2.94
2018-02-11T08:25:26.470Z,3
2018-02-11T08:26:26.607Z,3
2018-02-11T08:27:26.566Z,3
2018-02-11T08:28:26.582Z,3
2018-02-11T08:29:26.412Z,3
2018-02-11T08:30:26.730Z,3
2018-02-11T08:31:26.452Z,3
2018-02-11T08:32:26.518Z,3
2018-02-11T08:33:26.523Z,3
2018-02-11T08:34:26.558Z,3
2018-02-11T08:35:26.728Z,3
2018-02-11T08:36:26.525Z,3.06
2018-02-11T08:37:26.503Z,3.06
2018-02-11T08:38:26.755Z,3.06
2018-02-11T08:39:26.518Z,3.06
2018-02-11T08:40:26.378Z,3.06
2018-02-11T08:41:26.325Z,3.06
2018-02-11T08:42:26.506Z,3.06
2018-02-11T08:43:26.813Z,3.06
2018-02-11T08:44:26.400Z,3.06
2018-02-11T08:45:26.577Z,3
2018-02-11T08:46:26.463Z,3
2018-02-11T08:47:26.635Z,3
2018-02-11T08:48:25.519Z,2.94
2018-02-11T08:49:25.518Z,2.94
2018-02-11T08:50:25.595Z,2.94
2018-02-11T08:51:25.535Z,2.94
2018-02-11T08:52:25.646Z,2.94
2018-02-11T08:53:25.352Z,2.94
2018-02-11T08:54:25.566Z,2.94
2018-02-11T08:55:25.469Z,2.87
2018-02-11T08:56:25.521Z,2.87
2018-02-11T08:57:25.424Z,2.87
2018-02-11T08:58:25.473Z,2.87
2018-02-11T08:59:25.566Z,2.94
2018-02-11T09:00:25.698Z,2.87
2018-02-11T09:01:25.387Z,2.94
2018-02-11T09:02:25.576Z,2.94
2018-02-11T09:03:25.485Z,2.94
2018-02-11T09:04:25.544Z,2.94
2018-02-11T09:05:25.452Z,2.87
2018-02-11T09:06:25.725Z,2.94
2018-02-11T09:07:26.757Z,2.87
2018-02-11T09:08:25.676Z,2.94
2018-02-11T09:09:25.760Z,2.87
2018-02-11T09:10:25.546Z,2.87
2018-02-11T09:11:26.229Z,2.87
2018-02-11T09:12:26.187Z,2.87
2018-02-11T09:13:25.723Z,2.87
2018-02-11T09:14:25.734Z,2.87
2018-02-11T09:15:25.751Z,2.87
2018-02-11T09:16:25.491Z,2.81
2018-02-11T09:17:25.811Z,2.81
2018-02-11T09:18:25.495Z,2.87
2018-02-11T09:19:26.354Z,2.81
2018-02-11T09:20:26.420Z,2.81
2018-02-11T09:21:26.354Z,2.87
2018-02-11T09:22:26.636Z,2.81
2018-02-11T09:23:26.404Z,2.81
2018-02-11T09:24:26.341Z,2.81
2018-02-11T09:25:27.197Z,2.81
2018-02-11T09:26:26.717Z,2.81
2018-02-11T09:27:26.329Z,2.81
2018-02-11T09:28:26.245Z,2.81
2018-02-11T09:29:26.392Z,2.81
2018-02-11T09:30:27.070Z,2.81
2018-02-11T09:31:26.408Z,2.81
2018-02-11T09:32:26.363Z,2.87
2018-02-11T09:33:26.666Z,2.81
2018-02-11T09:34:26.180Z,2.81
2018-02-11T09:35:26.400Z,2.81
2018-02-11T09:36:27.108Z,2.81
2018-02-11T09:37:26.539Z,2.81
2018-02-11T09:38:26.360Z,2.87
2018-02-11T09:39:26.479Z,2.81
2018-02-11T09:40:26.374Z,2.87
2018-02-11T09:41:26.438Z,2.87
2018-02-11T09:42:26.615Z,2.87
2018-02-11T09:43:26.544Z,2.87
2018-02-11T09:44:26.338Z,2.87
2018-02-11T09:45:26.622Z,2.87
2018-02-11T09:46:26.386Z,2.87
2018-02-11T09:47:26.467Z,2.87
2018-02-11T09:48:27.704Z,2.87
2018-02-11T09:49:26.132Z,2.87
2018-02-11T09:50:26.695Z,2.94
2018-02-11T09:51:27.120Z,2.94
2018-02-11T09:52:27.569Z,2.94
2018-02-11T09:53:27.134Z,2.94
2018-02-11T09:54:26.925Z,2.94
2018-02-11T09:55:26.261Z,2.94
2018-02-11T09:56:26.743Z,2.94
2018-02-11T09:57:26.919Z,2.94
2018-02-11T09:58:26.261Z,3
2018-02-11T09:59:26.706Z,2.94
2018-02-11T10:00:27.071Z,2.94
2018-02-11T10:01:26.270Z,2.94
2018-02-11T10:02:27.423Z,3
2018-02-11T10:03:26.870Z,3
2018-02-11T10:04:26.076Z,3
2018-02-11T10:05:26.183Z,3
2018-02-11T10:06:27.851Z,3
2018-02-11T10:07:26.896Z,3
2018-02-11T10:08:26.728Z,3.06
2018-02-11T10:09:27.053Z,3.06
2018-02-11T10:10:26.816Z,3.06
2018-02-11T10:11:26.259Z,3.06
2018-02-11T10:12:27.922Z,3.06
2018-02-11T10:13:27.837Z,3.06
2018-02-11T10:14:27.039Z,3
2018-02-11T10:15:27.257Z,3.06
2018-02-11T10:16:26.246Z,3.06
2018-02-11T10:17:27.322Z,3.06
2018-02-11T10:18:26.887Z,3.06
2018-02-11T10:19:26.589Z,3.06
2018-02-11T10:20:26.637Z,3.06
2018-02-11T10:21:26.850Z,3.06
2018-02-11T10:22:26.652Z,3.06
2018-02-11T10:23:26.269Z,3.06
2018-02-11T10:24:27.155Z,3.06
2018-02-11T10:25:26.799Z,3.06
2018-02-11T10:26:26.772Z,3.06
2018-02-11T10:27:26.973Z,3
2018-02-11T10:28:26.513Z,3.06
2018-02-11T10:29:26.712Z,3
2018-02-11T10:30:27.648Z,3.06
2018-02-11T10:31:27.029Z,3.06
2018-02-11T10:32:26.560Z,3.06
2018-02-11T10:33:27.129Z,3.06
2018-02-11T10:34:26.767Z,3.06
2018-02-11T10:35:26.555Z,3.06
2018-02-11T10:36:27.205Z,3.06
2018-02-11T10:37:26.694Z,3.12
2018-02-11T10:38:26.757Z,3.06
2018-02-11T10:39:26.586Z,3.12
2018-02-11T10:40:26.439Z,3.12
2018-02-11T10:41:26.712Z,3.12
2018-02-11T10:42:27.204Z,3.12
2018-02-11T10:43:26.899Z,3.19
2018-02-11T10:44:26.674Z,3.19
2018-02-11T10:45:26.833Z,3.19
2018-02-11T10:46:26.572Z,3.19
2018-02-11T10:47:26.838Z,3.25
2018-02-11T10:48:27.535Z,3.25
2018-02-11T10:49:26.909Z,3.19
2018-02-11T10:50:26.940Z,3.25
2018-02-11T10:51:27.725Z,3.25
2018-02-11T10:52:27.203Z,3.31
2018-02-11T10:53:26.957Z,3.25
2018-02-11T10:54:27.261Z,3.31
2018-02-11T10:55:27.048Z,3.31
2018-02-11T10:56:27.107Z,3.31
2018-02-11T10:57:28.748Z,3.37
2018-02-11T10:58:27.109Z,3.37
2018-02-11T10:59:27.159Z,3.37
2018-02-11T11:00:27.204Z,3.37
2018-02-11T11:01:27.053Z,3.37
2018-02-11T11:02:27.174Z,3.37
2018-02-11T11:03:27.116Z,3.37
2018-02-11T11:04:27.223Z,3.37
2018-02-11T11:05:27.039Z,3.44
2018-02-11T11:06:26.979Z,3.37
2018-02-11T11:07:27.073Z,3.44
2018-02-11T11:08:26.805Z,3.37
2018-02-11T11:09:27.391Z,3.44
2018-02-11T11:10:27.226Z,3.44
2018-02-11T11:11:26.974Z,3.44
2018-02-11T11:12:27.370Z,3.44
2018-02-11T11:13:26.923Z,3.44
2018-02-11T11:15:27.193Z,3.44
2018-02-11T11:16:26.907Z,3.5
2018-02-11T11:17:27.455Z,3.5
2018-02-11T11:18:28.062Z,3.5
2018-02-11T11:19:26.840Z,3.5
2018-02-11T11:20:27.523Z,3.5
2018-02-11T11:21:26.563Z,3.5
2018-02-11T11:22:26.536Z,3.5
2018-02-11T11:23:26.622Z,3.5
2018-02-11T11:24:26.562Z,3.5
2018-02-11T11:25:26.438Z,3.5
2018-02-11T11:26:26.625Z,3.56
2018-02-11T11:27:26.629Z,3.56
2018-02-11T11:28:26.464Z,3.56
2018-02-11T11:29:27.013Z,3.56
2018-02-11T11:30:27.104Z,3.56
2018-02-11T11:31:26.492Z,3.62
2018-02-11T11:32:26.308Z,3.62
2018-02-11T11:33:26.590Z,3.69
2018-02-11T11:34:26.699Z,3.69
2018-02-11T11:35:26.988Z,3.75
2018-02-11T11:36:26.836Z,3.75
2018-02-11T11:37:26.819Z,3.75
2018-02-11T11:38:26.500Z,3.81
2018-02-11T11:39:26.669Z,3.81
2018-02-11T11:40:26.458Z,3.81
2018-02-11T11:41:26.398Z,3.81
2018-02-11T11:42:26.665Z,3.87
2018-02-11T11:43:26.385Z,3.87
2018-02-11T11:44:26.433Z,3.94
2018-02-11T11:45:26.950Z,3.94
2018-02-11T11:46:26.522Z,3.94
2018-02-11T11:47:26.318Z,3.94
2018-02-11T11:48:27.688Z,3.87
2018-02-11T11:49:26.363Z,3.94
2018-02-11T11:50:26.440Z,3.87
2018-02-11T11:51:26.686Z,3.94
2018-02-11T11:52:26.960Z,3.87
2018-02-11T11:53:26.462Z,3.94
2018-02-11T11:54:27.492Z,3.94
2018-02-11T11:55:27.062Z,3.94
2018-02-11T11:56:26.686Z,3.94
2018-02-11T11:57:26.860Z,3.94
2018-02-11T11:58:26.618Z,3.94
2018-02-11T11:59:27.696Z,4
2018-02-11T12:00:26.964Z,4
2018-02-11T12:01:26.971Z,4
2018-02-11T12:02:27.140Z,3.94
2018-02-11T12:03:27.533Z,4
2018-02-11T12:04:26.980Z,4
2018-02-11T12:05:27.263Z,4
2018-02-11T12:06:26.878Z,4.06
2018-02-11T12:07:27.044Z,4.06
2018-02-11T12:08:27.099Z,4.06
2018-02-11T12:09:26.698Z,4.06
2018-02-11T12:10:26.674Z,4.12
2018-02-11T12:11:28.014Z,4.12
2018-02-11T12:12:27.135Z,4.12
2018-02-11T12:13:26.974Z,4.12
2018-02-11T12:14:27.442Z,4.12
2018-02-11T12:15:26.685Z,4.12
2018-02-11T12:16:27.440Z,4.19
2018-02-11T12:17:27.124Z,4.19
2018-02-11T12:18:26.702Z,4.25
2018-02-11T12:19:26.956Z,4.25
2018-02-11T12:20:26.999Z,4.25
2018-02-11T12:21:27.340Z,4.25
2018-02-11T12:22:26.606Z,4.31
2018-02-11T12:23:26.234Z,4.31
2018-02-11T12:24:26.437Z,4.25
2018-02-11T12:25:26.510Z,4.31
2018-02-11T12:26:26.811Z,4.31
2018-02-11T12:27:26.882Z,4.25
2018-02-11T12:28:26.611Z,4.31
2018-02-11T12:29:26.365Z,4.31
2018-02-11T12:30:26.451Z,4.31
2018-02-11T12:31:26.656Z,4.31
2018-02-11T12:32:26.798Z,4.37
2018-02-11T12:33:26.688Z,4.44
2018-02-11T12:34:26.617Z,4.37
2018-02-11T12:35:26.406Z,4.44
2018-02-11T12:36:26.750Z,4.44
2018-02-11T12:37:26.464Z,4.44
2018-02-11T12:38:26.252Z,4.5
2018-02-11T12:39:26.314Z,4.5
2018-02-11T12:40:26.608Z,4.56
2018-02-11T12:41:26.768Z,4.62
2018-02-11T12:42:26.672Z,4.69
2018-02-11T12:43:26.579Z,4.81
2018-02-11T12:44:26.483Z,4.81
2018-02-11T12:45:26.964Z,4.87
2018-02-11T12:46:27.036Z,4.94
2018-02-11T12:47:26.387Z,4.94
2018-02-11T12:48:26.635Z,5
2018-02-11T12:49:26.365Z,5
2018-02-11T12:50:26.361Z,5.06
2018-02-11T12:51:26.414Z,5.06
2018-02-11T12:52:26.458Z,5.06
2018-02-11T12:53:26.594Z,5.06
2018-02-11T12:54:26.795Z,5.06
2018-02-11T12:55:26.395Z,5.06
2018-02-11T12:56:26.374Z,5
2018-02-11T12:57:26.563Z,5
2018-02-11T12:58:26.567Z,5
2018-02-11T12:59:26.529Z,5
2018-02-11T13:00:26.476Z,5
2018-02-11T13:01:26.610Z,5.06
2018-02-11T13:02:26.552Z,5
2018-02-11T13:03:26.408Z,5.06
2018-02-11T13:04:26.477Z,5.06
2018-02-11T13:05:26.464Z,5.06
2018-02-11T13:06:27.073Z,5.06
2018-02-11T13:07:26.474Z,5.19
2018-02-11T13:08:26.465Z,5.19
2018-02-11T13:09:26.437Z,5.19
2018-02-11T13:10:26.405Z,5.25
2018-02-11T13:11:26.924Z,5.25
2018-02-11T13:12:26.330Z,5.31
2018-02-11T13:13:26.405Z,5.31
2018-02-11T13:14:26.470Z,5.37
2018-02-11T13:15:27.400Z,5.31
2018-02-11T13:16:27.061Z,5.37
2018-02-11T13:17:26.410Z,5.37
2018-02-11T13:18:26.581Z,5.37
2018-02-11T13:19:26.475Z,5.37
2018-02-11T13:20:26.475Z,5.31
2018-02-11T13:21:26.656Z,5.31
2018-02-11T13:22:26.291Z,5.31
2018-02-11T13:23:26.534Z,5.31
2018-02-11T13:24:26.459Z,5.31
2018-02-11T13:25:26.323Z,5.31
2018-02-11T13:26:26.656Z,5.31
2018-02-11T13:27:26.746Z,5.31
2018-02-11T13:28:26.601Z,5.31
2018-02-11T13:29:26.588Z,5.25
2018-02-11T13:30:26.795Z,5.31
2018-02-11T13:31:26.607Z,5.25
2018-02-11T13:32:26.452Z,5.25
2018-02-11T13:33:26.497Z,5.25
2018-02-11T13:34:26.473Z,5.25